Airfield :
LOGIN :

Register | Disclaimer

   EN    FR    IT 

 










Legend :    VFR   Marginal VFR   IFR   Intensive IFR   Very Intensive IFR
Visi :
Ceiling :
>= 8 km
>= 3000ft
5 to 8 km
1000 to 3000 ft
1500m to 5 km
500 to 1000 ft
800 to 1500m
200 to 500 ft
< 800m
< 200 ft
Symbols :   Thunderstorms  Fog  Heavy snow  Heavy precipitations  Wind > 20 kt
SIGMETs :     Misc.  Thunderstorms  Icing  Turbulence  Mountain Waves  Volcanic Ashes







- Airport Elevation : 56 ft
- IATA code : ILY
- Download approach charts


EGPI - Islay

CURRENT METAR :
  • 151550Z 33014KT 9999 FEW028 SCT041 05/03 Q1011

EXPIRED METARs :
  • 151520Z 35015KT 9999 FEW032 05/03 Q1010
  • 151450Z 33015KT 9999 FEW048 05/02 Q1010
  • 151420Z 32013KT 9999 FEW045 05/03 Q1010
  • 151350Z 34013KT 9999 FEW048 06/03 Q1010
  • 151320Z 33017KT 9999 SCT043 05/02 Q1009
  • 151250Z 36011KT 330V040 9999 FEW024 SCT045 06/03 Q1009

TAF TAF EGPI
Valid from the 15 at 15:00 until the 15 at 19:00 UTC


151357Z 1515/1519 35013KT 9999 SCT025
PROB40
TEMPO 1515/1519 35016G26KT 7000 SHRA
No reported NOTAMs for that airfield.



MET'MAP, your aeronautical weather chart ! - Copyright ORBIFLY December 2007 - Disclaimer

ORBIFLY MET'MAP TEAM :

Programming & Development : Alexandra Zaïnal
Concept & Development : Baudouin d'Aumeries
Co-Development & Prog : Marc-Olivier Méhu
Technical & hardware support : Manuel Goepfert

Contact : metmap@orbifly.com




SOURCES & CREDITS :

   NOAA